Terminal Aerodrome Forecast
Issued by NWS

Current Version | Previous Version | Graphics & Text | Print | Product List | Glossary On
Versions: 1 2 3 4 5 6 7 8 9 10 11 12 13 14 15 16 17 18 19 20 21 22 23 24 25 26
641
FTUS41 KILN 230601 AAA
TAFLUK
TAF AMD
KLUK 230601Z 2306/2406 22007KT 4SM BR SCT040
     FM230900 20004KT 6SM BR OVC030
     FM231600 22005KT 6SM BR BKN026
     FM231800 22006KT P6SM BKN040
     FM240000 17003KT P6SM BKN040
     FM240300 16003KT 3SM BR BKN022=

USA.gov is the U.S. government's official web portal to all federal, state and local government web resources and services.